Time;durP1;ratioP1;P1;durP2;ratioP2;P2;SDS_P1;SDS_P2;PMS_P1;PMS_P2;Temp;Humidity;BMP_temperature;BMP_pressure;BME280_temperature;BME280_humidity;BME280_pressure;Samples;Min_cycle;Max_cycle;Signal;HPM_P1;HPM_P2
2022/01/13 00:01:42;;;;;;;26.60;21.60;;;0.20;99.90;;;;;;5130497;27;20763;-65
2022/01/13 00:04:10;;;;;;;29.13;20.87;;;0.10;99.90;;;;;;5131148;27;20455;-67
2022/01/13 00:06:39;;;;;;;30.87;21.60;;;0.10;99.90;;;;;;5130698;27;20953;-66
2022/01/13 00:09:07;;;;;;;30.20;22.40;;;0.10;99.90;;;;;;5130873;27;21074;-66
2022/01/13 00:11:34;;;;;;;30.60;22.90;;;0.00;99.90;;;;;;5130382;27;20477;-65
2022/01/13 00:17:08;;;;;;;28.17;22.70;;;0.00;99.90;;;;;;5130569;27;20418;-67
2022/01/13 00:19:47;;;;;;;29.03;22.83;;;0.00;99.90;;;;;;5125980;27;20566;-66
2022/01/13 00:22:20;;;;;;;33.80;23.73;;;0.00;99.90;;;;;;5123926;27;20453;-66
2022/01/13 00:24:51;;;;;;;32.97;24.23;;;-0.10;99.90;;;;;;5111898;28;20515;-67
2022/01/13 00:27:18;;;;;;;35.73;24.60;;;-0.10;99.90;;;;;;5111575;28;20457;-66
2022/01/13 00:29:46;;;;;;;31.57;23.87;;;-0.10;99.90;;;;;;5110878;27;20444;-64
2022/01/13 00:32:15;;;;;;;36.23;24.90;;;0.00;99.90;;;;;;5111053;28;20525;-65
2022/01/13 00:34:42;;;;;;;29.73;23.93;;;0.00;99.90;;;;;;5111472;28;20442;-65
2022/01/13 00:37:09;;;;;;;35.30;25.30;;;0.00;99.90;;;;;;5111542;28;20452;-65
2022/01/13 00:39:37;;;;;;;35.23;25.20;;;0.10;99.90;;;;;;5111147;28;20496;-66
2022/01/13 00:42:05;;;;;;;34.40;25.13;;;0.10;99.90;;;;;;5111696;28;20964;-64
2022/01/13 00:44:36;;;;;;;35.47;25.70;;;0.20;99.90;;;;;;5111547;28;20475;-64
2022/01/13 00:47:05;;;;;;;32.53;25.30;;;0.20;99.90;;;;;;5111697;28;20528;-65
2022/01/13 00:49:32;;;;;;;35.67;26.67;;;0.30;99.90;;;;;;5111188;28;20445;-65
2022/01/13 00:51:59;;;;;;;36.13;26.47;;;0.30;99.90;;;;;;5111670;28;20829;-65
2022/01/13 00:54:26;;;;;;;35.90;25.80;;;0.30;99.90;;;;;;5111391;28;20442;-66
2022/01/13 00:56:54;;;;;;;33.47;26.30;;;0.20;99.90;;;;;;5111434;28;20536;-65
2022/01/13 00:59:21;;;;;;;35.53;22.17;;;0.20;99.90;;;;;;5110977;28;21033;-65
2022/01/13 01:01:50;;;;;;;32.10;24.30;;;0.20;99.90;;;;;;5110947;28;20555;-65
2022/01/13 01:04:17;;;;;;;33.00;24.27;;;0.20;99.90;;;;;;5111608;28;20446;-65
2022/01/13 01:06:45;;;;;;;32.77;25.00;;;0.20;99.90;;;;;;5111196;28;20515;-65
2022/01/13 01:09:15;;;;;;;38.50;26.07;;;0.10;99.90;;;;;;5110741;28;20439;-65
2022/01/13 01:11:45;;;;;;;34.53;24.00;;;0.20;99.90;;;;;;5111155;28;20508;-64
2022/01/13 01:14:14;;;;;;;31.00;23.70;;;0.30;99.90;;;;;;5111212;28;20507;-65
2022/01/13 01:16:41;;;;;;;32.97;25.20;;;0.30;99.90;;;;;;5111390;28;20450;-66
2022/01/13 01:19:11;;;;;;;37.00;25.83;;;0.40;99.90;;;;;;5110873;28;20474;-66
2022/01/13 01:22:03;;;;;;;37.10;27.20;;;0.50;99.90;;;;;;5111072;28;20503;-65
2022/01/13 01:27:18;;;;;;;28.97;22.40;;;0.60;99.90;;;;;;5098264;28;20426;-65
2022/01/13 01:29:54;;;;;;;27.50;21.10;;;0.60;99.90;;;;;;5109677;28;20435;-66
2022/01/13 01:32:21;;;;;;;32.07;22.30;;;0.70;99.90;;;;;;5110788;28;20452;-66
2022/01/13 01:35:01;;;;;;;32.50;24.07;;;0.60;99.90;;;;;;5110249;28;20906;-65
2022/01/13 01:37:30;;;;;;;32.40;24.10;;;0.70;99.90;;;;;;5110538;28;20533;-66
2022/01/13 01:39:58;;;;;;;35.67;26.87;;;0.70;99.90;;;;;;5110006;28;20496;-65
2022/01/13 01:42:26;;;;;;;34.40;26.40;;;0.70;99.90;;;;;;5110765;28;20469;-65
2022/01/13 01:44:57;;;;;;;36.77;25.07;;;0.70;99.90;;;;;;5110440;28;20453;-65
2022/01/13 01:47:28;;;;;;;36.13;25.97;;;0.70;99.90;;;;;;5110791;28;20454;-69
2022/01/13 01:49:59;;;;;;;35.73;26.93;;;0.70;99.90;;;;;;5109652;28;20839;-65
2022/01/13 01:52:26;;;;;;;33.03;26.87;;;0.60;99.90;;;;;;5110275;28;20828;-65
2022/01/13 01:54:53;;;;;;;31.53;22.90;;;0.60;99.90;;;;;;5111411;28;20549;-65
2022/01/13 01:57:22;;;;;;;34.27;25.50;;;0.70;99.90;;;;;;5111476;28;20835;-65
2022/01/13 01:59:50;;;;;;;31.37;24.93;;;0.60;99.90;;;;;;5111041;28;20492;-65
2022/01/13 02:02:18;;;;;;;36.57;26.20;;;0.60;99.90;;;;;;5109917;28;20458;-65
2022/01/13 02:04:45;;;;;;;34.03;26.40;;;0.60;99.90;;;;;;5109806;28;20442;-65
2022/01/13 02:07:13;;;;;;;31.33;24.57;;;0.60;99.90;;;;;;5109681;28;20468;-65
2022/01/13 02:09:43;;;;;;;36.90;25.47;;;0.60;99.90;;;;;;5109437;28;20502;-65
2022/01/13 02:12:19;;;;;;;36.37;23.90;;;0.60;99.90;;;;;;5109839;28;20433;-65
2022/01/13 02:14:57;;;;;;;36.93;25.47;;;0.70;99.90;;;;;;5109792;28;20446;-66
2022/01/13 02:17:29;;;;;;;34.77;25.07;;;0.80;99.90;;;;;;5110229;28;20457;-65
2022/01/13 02:19:58;;;;;;;30.40;24.43;;;0.80;99.90;;;;;;5109554;28;20485;-65
2022/01/13 02:22:26;;;;;;;35.87;25.80;;;0.80;99.90;;;;;;5109730;28;20453;-65
2022/01/13 02:24:53;;;;;;;34.30;24.47;;;0.70;99.90;;;;;;5109951;28;20445;-65
2022/01/13 02:27:20;;;;;;;32.50;23.80;;;0.80;99.90;;;;;;5109634;28;20442;-66
2022/01/13 02:29:47;;;;;;;31.10;24.23;;;0.80;99.90;;;;;;5109417;28;20442;-66
2022/01/13 02:32:14;;;;;;;35.80;25.13;;;0.80;99.90;;;;;;5109660;28;20452;-66
2022/01/13 02:34:41;;;;;;;36.77;25.40;;;0.70;99.90;;;;;;5109850;28;20448;-65
2022/01/13 02:37:08;;;;;;;32.87;25.37;;;0.70;99.90;;;;;;5109648;28;20892;-66
2022/01/13 02:39:37;;;;;;;38.67;26.07;;;0.60;99.90;;;;;;5109451;28;20629;-66
2022/01/13 02:42:12;;;;;;;34.90;25.53;;;0.60;99.90;;;;;;5112650;28;20484;-65
2022/01/13 02:44:48;;;;;;;35.60;26.70;;;0.60;99.90;;;;;;5114640;28;20803;-65
2022/01/13 02:47:33;;;;;;;41.30;26.00;;;0.60;99.90;;;;;;5114561;28;20449;-65
2022/01/13 02:50:00;;;;;;;33.63;24.53;;;0.70;99.90;;;;;;5114160;28;20457;-65
2022/01/13 02:52:27;;;;;;;37.17;25.60;;;0.50;99.90;;;;;;5114175;28;20454;-65
2022/01/13 02:54:55;;;;;;;35.57;25.50;;;0.50;99.90;;;;;;5114619;28;20449;-64
2022/01/13 02:57:22;;;;;;;39.97;26.30;;;0.50;99.90;;;;;;5113702;28;20492;-64
2022/01/13 02:59:49;;;;;;;36.63;26.47;;;0.50;99.90;;;;;;5113161;28;20485;-65
2022/01/13 03:02:16;;;;;;;37.70;25.47;;;0.50;99.90;;;;;;5113480;28;20448;-67
2022/01/13 03:04:47;;;;;;;38.67;27.40;;;0.50;99.90;;;;;;5113381;28;20448;-65
2022/01/13 03:07:14;;;;;;;34.70;25.77;;;0.50;99.90;;;;;;5113332;28;20457;-65
2022/01/13 03:09:42;;;;;;;38.13;25.77;;;0.40;99.90;;;;;;5112863;28;20440;-65
2022/01/13 03:12:11;;;;;;;34.10;25.63;;;0.30;99.90;;;;;;5113420;28;20536;-66
2022/01/13 03:14:38;;;;;;;37.30;28.20;;;0.30;99.90;;;;;;5112976;28;20544;-65
2022/01/13 03:17:05;;;;;;;35.40;24.27;;;0.20;99.90;;;;;;5113141;28;20445;-65
2022/01/13 03:19:32;;;;;;;39.30;26.17;;;0.20;99.90;;;;;;5112391;28;20553;-66
2022/01/13 03:21:59;;;;;;;41.50;26.80;;;0.20;99.90;;;;;;5113036;28;20938;-65
2022/01/13 03:24:26;;;;;;;34.27;25.63;;;0.10;99.90;;;;;;5113335;28;20452;-65
2022/01/13 03:26:55;;;;;;;33.80;26.27;;;0.00;99.90;;;;;;5113256;28;20457;-65
2022/01/13 03:29:24;;;;;;;37.53;25.60;;;0.00;99.90;;;;;;5113034;28;20476;-65
2022/01/13 03:31:51;;;;;;;37.57;26.13;;;-0.10;99.90;;;;;;5113005;28;20470;-65
2022/01/13 03:34:18;;;;;;;35.67;25.07;;;-0.20;99.90;;;;;;5113110;28;20448;-65
2022/01/13 03:36:46;;;;;;;38.10;28.10;;;-0.20;99.90;;;;;;5113504;28;20456;-65
2022/01/13 03:39:13;;;;;;;35.37;25.70;;;-0.20;99.90;;;;;;5113267;28;20479;-65
2022/01/13 03:41:41;;;;;;;39.33;27.00;;;-0.30;99.90;;;;;;5112587;28;20476;-66
2022/01/13 03:44:17;;;;;;;40.67;26.73;;;-0.30;99.90;;;;;;5112788;28;20454;-67
2022/01/13 03:46:45;;;;;;;37.40;26.30;;;-0.30;99.90;;;;;;5112980;28;20436;-65
2022/01/13 03:49:12;;;;;;;41.53;27.03;;;-0.30;99.90;;;;;;5112259;28;20968;-66
2022/01/13 03:52:31;;;;;;;37.00;27.00;;;-0.30;99.90;;;;;;5112417;28;20479;-67
2022/01/13 03:55:35;;;;;;;35.13;26.13;;;-0.30;99.90;;;;;;5112361;28;20456;-65
2022/01/13 03:58:46;;;;;;;33.73;26.77;;;-0.30;99.90;;;;;;5112662;28;20441;-65
2022/01/13 04:02:06;;;;;;;33.57;24.23;;;-0.40;99.90;;;;;;5111720;28;20489;-66
2022/01/13 04:04:37;;;;;;;32.70;23.00;;;-0.50;99.90;;;;;;5111670;28;20456;-65
2022/01/13 04:07:08;;;;;;;35.00;25.77;;;-0.40;99.90;;;;;;5111929;28;20469;-65
2022/01/13 04:10:24;;;;;;;36.30;24.43;;;-0.40;99.90;;;;;;5111881;28;20987;-65
2022/01/13 04:12:51;;;;;;;37.60;26.40;;;-0.40;99.90;;;;;;5112032;28;20503;-65
2022/01/13 04:15:20;;;;;;;32.97;24.47;;;-0.50;99.90;;;;;;5112179;28;20522;-65
2022/01/13 04:17:47;;;;;;;34.10;25.47;;;-0.50;99.90;;;;;;5111946;28;20850;-65
2022/01/13 04:20:15;;;;;;;33.80;26.10;;;-0.50;99.90;;;;;;5111566;28;21060;-66
2022/01/13 04:22:42;;;;;;;35.57;26.00;;;-0.50;99.90;;;;;;5112035;28;20528;-65
2022/01/13 04:25:09;;;;;;;32.17;25.17;;;-0.40;99.90;;;;;;5111963;28;20538;-67
2022/01/13 04:27:42;;;;;;;35.07;25.03;;;-0.30;99.90;;;;;;5111603;28;20529;-65
2022/01/13 04:30:34;;;;;;;36.63;25.97;;;-0.30;99.90;;;;;;5111430;28;20460;-65
2022/01/13 04:33:02;;;;;;;33.60;26.03;;;-0.30;99.90;;;;;;5111439;27;20934;-66
2022/01/13 04:35:30;;;;;;;33.47;25.70;;;-0.30;99.90;;;;;;5111778;28;20886;-65
2022/01/13 04:37:57;;;;;;;31.50;24.07;;;-0.20;99.90;;;;;;5111604;28;20436;-66
2022/01/13 04:40:24;;;;;;;36.93;24.53;;;-0.20;99.90;;;;;;5111350;28;20520;-65
2022/01/13 04:42:55;;;;;;;35.60;24.80;;;-0.20;99.90;;;;;;5111351;28;20445;-65
2022/01/13 04:45:23;;;;;;;36.00;24.77;;;-0.10;99.90;;;;;;5111688;28;20486;-65
2022/01/13 04:47:53;;;;;;;35.10;26.67;;;0.00;99.90;;;;;;5111438;28;20452;-65
2022/01/13 04:50:20;;;;;;;34.27;24.00;;;0.10;99.90;;;;;;5110926;28;20552;-64
2022/01/13 04:52:48;;;;;;;38.17;24.90;;;0.20;99.90;;;;;;5111497;28;20451;-65
2022/01/13 04:55:21;;;;;;;35.10;24.57;;;0.20;99.90;;;;;;5111161;28;20440;-65
2022/01/13 04:57:48;;;;;;;33.23;24.97;;;0.30;99.90;;;;;;5111409;28;20474;-66
2022/01/13 05:00:16;;;;;;;32.43;25.47;;;0.30;99.90;;;;;;5110623;28;20484;-68
2022/01/13 05:02:43;;;;;;;35.10;25.47;;;0.40;99.90;;;;;;5111019;28;20453;-66
2022/01/13 05:05:10;;;;;;;35.97;25.03;;;0.50;99.90;;;;;;5110807;28;20437;-66
2022/01/13 05:07:37;;;;;;;31.27;25.17;;;0.50;99.90;;;;;;5110878;28;20445;-65
2022/01/13 05:10:06;;;;;;;35.37;24.60;;;0.60;99.90;;;;;;5110505;28;20461;-66
2022/01/13 05:12:38;;;;;;;32.33;25.00;;;0.60;99.90;;;;;;5110852;28;20800;-65
2022/01/13 05:15:08;;;;;;;31.40;24.60;;;0.60;99.90;;;;;;5111106;28;20924;-65
2022/01/13 05:17:59;;;;;;;30.50;24.03;;;0.60;99.90;;;;;;5110805;28;20450;-65
2022/01/13 05:20:29;;;;;;;34.83;25.83;;;0.60;99.90;;;;;;5117987;27;20521;-65
2022/01/13 05:22:56;;;;;;;32.17;24.87;;;0.80;99.90;;;;;;5130124;27;20437;-65
2022/01/13 05:25:25;;;;;;;33.43;25.20;;;0.80;99.90;;;;;;5130016;27;20479;-64
2022/01/13 05:27:51;;;;;;;33.87;27.03;;;0.90;99.90;;;;;;5129100;27;20523;-65
2022/01/13 05:30:19;;;;;;;31.90;23.50;;;0.80;99.90;;;;;;5130008;27;20451;-65
2022/01/13 05:32:47;;;;;;;28.90;23.10;;;0.90;99.90;;;;;;5130609;27;20425;-69
2022/01/13 05:35:15;;;;;;;34.17;25.00;;;0.90;99.90;;;;;;5131122;27;20448;-66
2022/01/13 05:37:42;;;;;;;30.23;24.63;;;0.90;99.90;;;;;;5130320;27;20486;-65
2022/01/13 05:40:11;;;;;;;31.33;23.27;;;0.80;99.90;;;;;;5127666;27;20839;-65
2022/01/13 05:42:39;;;;;;;32.37;23.37;;;0.80;99.90;;;;;;5130243;27;20454;-66
2022/01/13 05:45:14;;;;;;;34.20;26.27;;;0.80;99.90;;;;;;5131253;27;20445;-66
2022/01/13 05:47:41;;;;;;;33.07;24.70;;;0.80;99.90;;;;;;5130785;27;20447;-65
2022/01/13 05:50:09;;;;;;;33.10;24.00;;;0.80;99.90;;;;;;5130115;27;20464;-65
2022/01/13 05:52:36;;;;;;;34.30;22.80;;;0.70;99.90;;;;;;5130482;27;20452;-64
2022/01/13 05:55:03;;;;;;;35.80;27.60;;;0.70;99.90;;;;;;5127939;27;20449;-65
2022/01/13 05:57:30;;;;;;;31.67;23.97;;;0.70;99.90;;;;;;5130178;27;20445;-65
2022/01/13 05:59:58;;;;;;;32.60;24.93;;;0.70;99.90;;;;;;5129868;27;20908;-65
2022/01/13 06:02:25;;;;;;;30.10;24.67;;;0.70;99.90;;;;;;5130426;27;20971;-65
2022/01/13 06:04:52;;;;;;;34.17;23.57;;;0.80;99.90;;;;;;5130761;27;20447;-66
2022/01/13 06:07:19;;;;;;;31.63;24.07;;;0.70;99.90;;;;;;5130373;27;20452;-66
2022/01/13 06:09:45;;;;;;;29.47;22.47;;;0.60;99.90;;;;;;5129611;27;20440;-64
2022/01/13 06:12:12;;;;;;;33.83;23.90;;;0.70;99.90;;;;;;5130165;27;20959;-65
2022/01/13 06:14:39;;;;;;;31.53;24.87;;;0.70;99.90;;;;;;5130446;27;20989;-65
2022/01/13 06:17:07;;;;;;;26.27;21.57;;;0.80;99.90;;;;;;5130366;27;20456;-64
2022/01/13 06:19:34;;;;;;;29.00;22.13;;;0.80;99.90;;;;;;5129907;27;20451;-64
2022/01/13 06:22:01;;;;;;;32.37;23.57;;;0.80;99.90;;;;;;5125571;27;20473;-64
2022/01/13 06:24:28;;;;;;;32.00;24.57;;;0.80;99.90;;;;;;5121433;28;20460;-64
2022/01/13 06:26:55;;;;;;;27.47;21.90;;;0.80;99.90;;;;;;5125375;28;20444;-64
2022/01/13 06:29:21;;;;;;;30.53;24.10;;;0.80;99.90;;;;;;5129096;28;20858;-64
2022/01/13 06:31:49;;;;;;;29.20;22.23;;;0.80;99.90;;;;;;5129420;28;20483;-64
2022/01/13 06:34:17;;;;;;;28.93;22.60;;;0.90;99.90;;;;;;5130898;27;20437;-65
2022/01/13 06:36:44;;;;;;;33.10;24.03;;;0.80;99.90;;;;;;5129481;28;21020;-65
2022/01/13 06:39:11;;;;;;;30.37;23.30;;;0.80;99.90;;;;;;5124914;28;20455;-64
2022/01/13 06:41:40;;;;;;;27.33;21.23;;;0.80;99.90;;;;;;5124509;28;20485;-65
2022/01/13 06:44:07;;;;;;;26.23;23.30;;;0.90;99.90;;;;;;5119797;28;20456;-65
2022/01/13 06:46:34;;;;;;;29.13;22.13;;;0.80;99.90;;;;;;5128801;28;20448;-65
2022/01/13 06:49:01;;;;;;;28.33;22.50;;;0.80;99.90;;;;;;5129169;28;20920;-64
2022/01/13 06:51:30;;;;;;;28.47;23.20;;;0.80;99.90;;;;;;5128688;28;20463;-66
2022/01/13 06:53:57;;;;;;;31.43;23.43;;;0.70;99.90;;;;;;5129355;28;20441;-64
2022/01/13 06:56:24;;;;;;;32.33;24.20;;;0.80;99.90;;;;;;5129471;28;20964;-64
2022/01/13 06:58:52;;;;;;;28.87;21.80;;;0.80;99.90;;;;;;5129404;28;20448;-64
2022/01/13 07:01:21;;;;;;;34.80;24.60;;;0.70;99.90;;;;;;5124310;27;20587;-64
2022/01/13 07:03:48;;;;;;;31.93;21.60;;;0.70;99.90;;;;;;5125956;28;20461;-63
2022/01/13 07:06:15;;;;;;;28.70;22.17;;;0.60;99.90;;;;;;5129095;28;20466;-64
2022/01/13 07:08:43;;;;;;;33.20;24.03;;;0.50;99.90;;;;;;5129214;28;20460;-65
2022/01/13 07:11:10;;;;;;;28.23;22.57;;;0.60;99.90;;;;;;5129359;28;20449;-63
2022/01/13 07:13:37;;;;;;;32.33;22.70;;;0.60;99.90;;;;;;5129633;28;20441;-64
2022/01/13 07:16:04;;;;;;;30.60;24.07;;;0.60;99.90;;;;;;5127288;28;20941;-63
2022/01/13 07:18:38;;;;;;;28.53;22.80;;;0.60;99.90;;;;;;5127310;27;20452;-64
2022/01/13 07:21:06;;;;;;;30.10;22.40;;;0.60;99.90;;;;;;5124666;28;20484;-64
2022/01/13 07:23:33;;;;;;;35.47;23.50;;;0.70;99.90;;;;;;5129161;28;20448;-64
2022/01/13 07:26:02;;;;;;;27.33;21.50;;;0.60;99.90;;;;;;5122993;28;21035;-64
2022/01/13 07:28:29;;;;;;;30.20;23.13;;;0.70;99.90;;;;;;5130116;27;20451;-64
2022/01/13 07:30:56;;;;;;;33.17;23.47;;;0.70;99.90;;;;;;5127233;27;20468;-64
2022/01/13 07:33:23;;;;;;;30.17;23.63;;;0.70;99.90;;;;;;5128657;27;20440;-65
2022/01/13 07:35:50;;;;;;;29.93;24.13;;;0.80;99.90;;;;;;5130584;27;20455;-64
2022/01/13 07:38:17;;;;;;;30.93;22.50;;;0.80;99.90;;;;;;5132805;27;20523;-64
2022/01/13 07:40:44;;;;;;;31.20;24.33;;;0.80;99.90;;;;;;5131046;27;20917;-64
2022/01/13 07:43:13;;;;;;;29.70;23.90;;;0.80;99.90;;;;;;5126108;27;20444;-65
2022/01/13 07:45:40;;;;;;;29.20;23.20;;;0.80;99.90;;;;;;5125948;27;20528;-64
2022/01/13 07:48:07;;;;;;;30.13;22.57;;;0.80;99.90;;;;;;5127093;27;20471;-63
2022/01/13 07:50:34;;;;;;;28.80;21.63;;;0.90;99.90;;;;;;5127466;27;20879;-63
2022/01/13 07:53:01;;;;;;;30.80;23.63;;;1.00;99.90;;;;;;5131722;27;20891;-64
2022/01/13 07:55:28;;;;;;;30.13;23.43;;;0.90;99.90;;;;;;5130853;27;20455;-64
2022/01/13 07:57:54;;;;;;;36.43;23.90;;;1.00;99.90;;;;;;5128323;27;20449;-63
2022/01/13 08:00:23;;;;;;;26.83;22.17;;;1.00;99.90;;;;;;5130002;27;20471;-64
2022/01/13 08:02:49;;;;;;;33.30;23.00;;;1.00;99.90;;;;;;5129142;27;20526;-63
2022/01/13 08:05:16;;;;;;;35.13;23.10;;;1.00;99.90;;;;;;5129175;27;20448;-64
2022/01/13 08:07:43;;;;;;;30.20;22.40;;;0.90;99.90;;;;;;5128287;27;21100;-64
2022/01/13 08:10:11;;;;;;;35.63;25.40;;;1.00;99.90;;;;;;5129473;27;20600;-62
2022/01/13 08:12:38;;;;;;;32.13;24.90;;;1.10;99.90;;;;;;5129761;27;20513;-62
2022/01/13 08:15:07;;;;;;;29.60;23.10;;;1.10;99.90;;;;;;5129867;27;20461;-63
2022/01/13 08:20:20;;;;;;;27.60;22.17;;;1.20;99.90;;;;;;5131124;27;20451;-62
2022/01/13 08:22:47;;;;;;;30.80;23.60;;;1.20;99.90;;;;;;5130970;27;20567;-62
2022/01/13 08:25:15;;;;;;;32.53;24.50;;;1.30;99.90;;;;;;5131173;27;20444;-62
2022/01/13 08:27:42;;;;;;;36.60;23.97;;;1.40;99.90;;;;;;5130483;27;20815;-62
2022/01/13 08:30:10;;;;;;;29.87;22.70;;;1.40;99.90;;;;;;5130917;27;20477;-62
2022/01/13 08:32:38;;;;;;;30.37;22.80;;;1.50;99.90;;;;;;5131249;27;20445;-63
2022/01/13 08:35:06;;;;;;;29.80;23.80;;;1.60;99.90;;;;;;5131151;27;20447;-63
2022/01/13 08:37:33;;;;;;;28.40;21.73;;;1.70;99.90;;;;;;5131183;27;20478;-63
2022/01/13 08:40:00;;;;;;;32.60;22.30;;;1.70;99.90;;;;;;5130941;27;20500;-64
2022/01/13 08:42:27;;;;;;;27.43;20.63;;;1.80;99.90;;;;;;5131788;27;20472;-63
2022/01/13 08:44:54;;;;;;;32.27;23.00;;;1.80;99.90;;;;;;5131877;27;20466;-63
2022/01/13 08:47:21;;;;;;;30.20;21.63;;;1.80;99.90;;;;;;5131682;27;20449;-63
2022/01/13 08:49:49;;;;;;;26.57;21.60;;;1.80;99.90;;;;;;5131378;27;20945;-64
2022/01/13 08:52:16;;;;;;;28.73;21.17;;;1.90;99.90;;;;;;5122018;27;21011;-63
2022/01/13 08:54:46;;;;;;;34.97;22.77;;;2.00;99.90;;;;;;5130117;27;20449;-63
2022/01/13 08:57:13;;;;;;;27.47;21.27;;;2.00;99.90;;;;;;5130488;27;20444;-63
2022/01/13 08:59:40;;;;;;;27.50;22.00;;;2.10;99.90;;;;;;5128784;27;20471;-64
2022/01/13 09:02:07;;;;;;;27.90;21.87;;;2.20;99.90;;;;;;5129950;27;20488;-63
2022/01/13 09:04:34;;;;;;;29.70;21.40;;;2.20;99.90;;;;;;5131274;27;20471;-64
2022/01/13 09:07:02;;;;;;;26.70;21.70;;;2.40;99.90;;;;;;5131178;27;20455;-63
2022/01/13 09:09:30;;;;;;;28.60;22.60;;;2.40;99.90;;;;;;5130721;27;20527;-64
2022/01/13 09:11:57;;;;;;;26.20;20.50;;;2.50;99.90;;;;;;5131376;27;20960;-59
2022/01/13 09:14:26;;;;;;;27.10;22.30;;;2.40;99.90;;;;;;5131300;27;20453;-63
2022/01/13 09:16:53;;;;;;;29.27;22.23;;;2.30;99.90;;;;;;5131485;27;20491;-64
2022/01/13 09:19:20;;;;;;;26.10;21.33;;;2.40;99.90;;;;;;5131138;27;20576;-64
2022/01/13 09:21:48;;;;;;;29.43;21.63;;;2.50;99.90;;;;;;5131089;27;20484;-64
2022/01/13 09:24:18;;;;;;;27.37;20.70;;;2.60;99.90;;;;;;5131352;27;20535;-64
2022/01/13 09:26:46;;;;;;;29.67;21.33;;;2.60;99.90;;;;;;5131013;27;20452;-65
2022/01/13 09:29:13;;;;;;;32.90;21.10;;;2.60;99.90;;;;;;5130849;27;20448;-65
2022/01/13 09:31:42;;;;;;;26.00;20.93;;;2.70;99.90;;;;;;5130904;27;20465;-65
2022/01/13 09:34:10;;;;;;;23.13;19.33;;;2.80;99.90;;;;;;5131188;27;20452;-64
2022/01/13 09:36:37;;;;;;;31.90;19.93;;;2.80;99.90;;;;;;5130775;27;20993;-63
2022/01/13 09:39:06;;;;;;;27.40;20.87;;;3.00;99.90;;;;;;5130791;27;20451;-65
2022/01/13 09:41:35;;;;;;;25.40;19.10;;;3.10;99.90;;;;;;5130799;27;20487;-65
2022/01/13 09:44:05;;;;;;;24.60;19.17;;;3.10;99.90;;;;;;5130836;27;20445;-64
2022/01/13 09:46:32;;;;;;;23.00;18.83;;;3.00;99.90;;;;;;5130674;27;20524;-64
2022/01/13 09:49:02;;;;;;;24.10;18.83;;;2.90;99.90;;;;;;5130504;27;20449;-65
2022/01/13 09:51:30;;;;;;;23.73;18.47;;;2.80;99.90;;;;;;5129987;27;20476;-64
2022/01/13 09:53:57;;;;;;;28.90;21.10;;;2.80;99.90;;;;;;5130819;27;20441;-66
2022/01/13 09:56:24;;;;;;;25.00;20.33;;;2.70;99.90;;;;;;5131051;27;20505;-64
2022/01/13 09:58:53;;;;;;;23.40;18.80;;;2.80;99.90;;;;;;5131496;27;20444;-66
2022/01/13 10:01:20;;;;;;;24.10;17.60;;;2.70;99.90;;;;;;5130891;27;20496;-65
2022/01/13 10:03:46;;;;;;;22.27;17.10;;;2.70;99.90;;;;;;5132940;27;20425;-64
2022/01/13 10:06:15;;;;;;;23.03;17.20;;;2.70;99.90;;;;;;5132281;27;20839;-66
2022/01/13 10:08:44;;;;;;;22.13;16.87;;;2.80;99.90;;;;;;5131059;27;20453;-65
2022/01/13 10:11:31;;;;;;;25.13;17.90;;;2.90;99.90;;;;;;5130889;27;21037;-66
2022/01/13 10:14:07;;;;;;;22.60;15.97;;;2.90;99.90;;;;;;5131299;27;20494;-64
2022/01/13 10:16:33;;;;;;;23.50;18.30;;;3.00;99.90;;;;;;5130652;27;20453;-66
2022/01/13 10:19:00;;;;;;;19.20;16.37;;;3.20;99.90;;;;;;5130451;27;20450;-65
2022/01/13 10:21:27;;;;;;;20.77;16.43;;;3.20;99.90;;;;;;5130165;27;20461;-63
2022/01/13 10:24:02;;;;;;;20.53;15.23;;;3.20;99.90;;;;;;5130652;28;20934;-64
2022/01/13 10:26:30;;;;;;;25.60;17.00;;;3.10;99.90;;;;;;5130053;28;20449;-64
2022/01/13 10:28:57;;;;;;;20.33;14.73;;;3.30;99.90;;;;;;5130189;27;20453;-65
2022/01/13 10:31:44;;;;;;;20.30;15.87;;;3.80;99.90;;;;;;5129924;28;20488;-64
2022/01/13 10:34:23;;;;;;;17.60;14.70;;;4.60;99.90;;;;;;5130455;28;20449;-63
2022/01/13 10:37:01;;;;;;;18.50;16.40;;;5.10;99.90;;;;;;5130221;28;20432;-65
2022/01/13 10:40:04;;;;;;;18.83;15.17;;;5.60;99.90;;;;;;5130335;28;20492;-66
2022/01/13 10:43:07;;;;;;;19.43;13.93;;;6.40;99.90;;;;;;5130482;28;20478;-65
2022/01/13 10:45:46;;;;;;;21.10;15.97;;;7.20;99.90;;;;;;5130599;28;20525;-65
2022/01/13 10:48:17;;;;;;;17.67;14.90;;;8.20;99.90;;;;;;5130400;27;20950;-65
2022/01/13 10:50:48;;;;;;;19.30;16.00;;;8.30;99.90;;;;;;5129887;27;20473;-65
2022/01/13 10:53:19;;;;;;;18.97;16.33;;;8.40;99.90;;;;;;5130155;28;20441;-64
2022/01/13 10:55:49;;;;;;;16.50;14.70;;;8.40;99.90;;;;;;5130578;27;20947;-65
2022/01/13 10:58:18;;;;;;;17.37;15.50;;;8.70;99.90;;;;;;5131285;28;20445;-66
2022/01/13 11:00:47;;;;;;;16.60;14.00;;;8.90;99.90;;;;;;5130949;27;20461;-65
2022/01/13 11:03:17;;;;;;;17.17;14.17;;;8.60;99.90;;;;;;5135255;27;20853;-65
2022/01/13 11:05:48;;;;;;;16.10;14.50;;;7.90;99.90;;;;;;5136363;27;20440;-65
2022/01/13 11:08:30;;;;;;;17.30;13.63;;;7.30;99.90;;;;;;5133771;27;20483;-64
2022/01/13 11:10:59;;;;;;;16.33;13.70;;;6.70;99.90;;;;;;5133416;27;20496;-64
2022/01/13 11:13:30;;;;;;;16.07;13.90;;;6.10;99.90;;;;;;5133924;27;20819;-64
2022/01/13 11:15:57;;;;;;;15.00;13.47;;;5.90;99.90;;;;;;5134243;27;20440;-63
2022/01/13 11:18:28;;;;;;;16.23;13.70;;;5.60;99.90;;;;;;5133884;27;20453;-64
2022/01/13 11:20:57;;;;;;;15.87;14.17;;;5.30;99.90;;;;;;5133679;27;20806;-64
2022/01/13 11:23:25;;;;;;;16.97;13.83;;;5.10;99.90;;;;;;5133704;27;20486;-66
2022/01/13 11:25:55;;;;;;;16.80;13.57;;;4.90;99.90;;;;;;5133588;27;20449;-64
2022/01/13 11:28:23;;;;;;;17.33;12.40;;;4.80;99.90;;;;;;5133596;27;20484;-65
2022/01/13 11:30:51;;;;;;;18.20;14.27;;;4.60;99.90;;;;;;5132988;27;20457;-64
2022/01/13 11:33:18;;;;;;;19.17;13.50;;;4.50;99.90;;;;;;5133626;27;20449;-63
2022/01/13 11:35:55;;;;;;;16.63;11.93;;;4.40;99.90;;;;;;5133224;27;20535;-64
2022/01/13 11:38:23;;;;;;;16.17;13.53;;;4.00;99.90;;;;;;5133207;27;20440;-64
2022/01/13 11:40:52;;;;;;;17.17;12.10;;;3.90;99.90;;;;;;5132744;27;20552;-64
2022/01/13 11:43:32;;;;;;;16.47;12.57;;;4.00;99.90;;;;;;5133160;27;20477;-64
2022/01/13 11:46:13;;;;;;;16.57;12.90;;;4.10;99.90;;;;;;5133423;27;20448;-64
2022/01/13 11:48:52;;;;;;;15.63;12.50;;;4.20;99.90;;;;;;5133255;27;20445;-65
2022/01/13 11:51:21;;;;;;;15.73;12.67;;;4.20;99.90;;;;;;5133289;27;20469;-65
2022/01/13 11:53:55;;;;;;;15.20;11.60;;;4.20;99.90;;;;;;5133339;27;20441;-64
2022/01/13 11:56:23;;;;;;;16.23;11.33;;;4.20;99.90;;;;;;5133087;27;20456;-65
2022/01/13 11:58:51;;;;;;;13.37;11.50;;;4.20;99.90;;;;;;5132841;27;20683;-65
2022/01/13 12:01:20;;;;;;;14.90;11.27;;;4.10;99.90;;;;;;5132619;27;20475;-65
2022/01/13 12:03:50;;;;;;;15.67;12.17;;;4.20;99.90;;;;;;5133029;27;20469;-65
2022/01/13 12:06:42;;;;;;;14.63;10.20;;;4.20;99.90;;;;;;5132914;27;20464;-63
2022/01/13 12:09:10;;;;;;;16.43;12.83;;;4.30;99.90;;;;;;5132701;27;20441;-65
2022/01/13 12:11:42;;;;;;;15.63;12.87;;;4.30;99.90;;;;;;5132672;27;20463;-65
2022/01/13 12:14:34;;;;;;;18.40;11.70;;;4.40;99.90;;;;;;5132027;27;20428;-65
2022/01/13 12:17:05;;;;;;;13.70;10.63;;;4.40;99.90;;;;;;5132611;27;20531;-64
2022/01/13 12:19:37;;;;;;;16.43;11.20;;;4.40;99.90;;;;;;5132802;27;20437;-63
2022/01/13 12:22:09;;;;;;;16.03;12.93;;;4.30;99.90;;;;;;5132910;27;20541;-64
2022/01/13 12:24:48;;;;;;;13.40;11.60;;;4.40;99.90;;;;;;5133316;27;20519;-65
2022/01/13 12:27:15;;;;;;;15.50;12.00;;;4.30;99.90;;;;;;5132724;27;20453;-62
2022/01/13 12:29:48;;;;;;;17.10;12.10;;;4.30;99.90;;;;;;5132153;27;21105;-65
2022/01/13 12:32:17;;;;;;;16.43;12.83;;;4.40;99.90;;;;;;5132677;27;20953;-65
2022/01/13 12:34:50;;;;;;;14.10;11.80;;;4.40;99.90;;;;;;5132654;27;20455;-63
2022/01/13 12:37:27;;;;;;;19.03;11.33;;;4.50;99.90;;;;;;5140427;27;20441;-64
2022/01/13 12:39:58;;;;;;;14.43;11.60;;;4.50;99.90;;;;;;5144466;27;20457;-63
2022/01/13 12:42:33;;;;;;;15.63;11.67;;;4.50;99.90;;;;;;5132629;27;20476;-64
2022/01/13 12:47:45;;;;;;;16.33;10.90;;;4.50;99.90;;;;;;5128223;27;20569;-64
2022/01/13 12:50:17;;;;;;;14.00;10.40;;;4.60;99.90;;;;;;5130433;27;20452;-66
2022/01/13 12:52:46;;;;;;;16.63;11.37;;;4.50;99.90;;;;;;5129337;27;20449;-63
2022/01/13 12:55:13;;;;;;;15.03;10.80;;;4.60;99.90;;;;;;5130789;27;20448;-64
2022/01/13 12:57:45;;;;;;;15.40;10.87;;;4.70;99.90;;;;;;5130324;27;20433;-65
2022/01/13 13:00:14;;;;;;;16.57;11.67;;;4.70;99.90;;;;;;5126312;27;20469;-63
2022/01/13 13:02:51;;;;;;;12.97;10.30;;;4.70;99.90;;;;;;5132134;27;20579;-65